Alleyton, Texas
Current Conditions -  °F | °C
As of 5:35 PM on Thursday 18 Dec 2014 (Local Time) from K66R Reporting Station
Overcast Overcast  
Wind Chill: 62°   Ceiling: 1400
Heat Index: 62°   Visibility: 10mi
Dew Point: 59°   Wind: 3mph
Humidity: 90%   Direction: 10°N
Pressure: 30.03"   Gusts: NA
Location:  29.71°N, 96.49°W
Report Text: K66R 182335Z AUTO 01003KT 10SM OVC014 17/15 A3003 RMK AO2 T01670150
Loading
Personal Weather Stations






























Interactive Weather Map New forecast layout! Learn more

10-Day Weather Forecast

Advertisements
Track Severe Weather on mobile